• Join FlightAware (Why Join?)
  • Login
  • US Flag 
03:39AM EDT


 

Airport Tracker/Info


-or-


 

Live Flight TrackerFlight Track Log ✈ AVN10 ✈ 27-Mar-2014 ✈ NVVV / VLI - YSSY / SYD

Flight Track Log - Related Links

Times and Time Zones

All times are in EDT time to prevent confusion due to time zone crossing. See the AVN10 flight status page for this flight to view local times or setup timezone preferences in your user account.

Time Position Orientation Groundspeed Altitude Reporting Facility
EDT Latitude Longitude Course Direction KTS MPH feet Rate Location/Type
03:57PM -17.9040 168.1389 220° Southwest  Level Estimated
03:58PM -17.9722 168.0786 220° Southwest  Level Estimated
03:59PM -18.0404 168.0181 220° Southwest  Level Estimated
04:00PM -18.1086 167.9577 220° Southwest  Level Estimated
04:01PM -18.1767 167.8972 220° Southwest  Level Estimated
04:02PM -18.2449 167.8366 220° Southwest  Level Estimated
04:03PM -18.3130 167.7760 220° Southwest  Level Estimated
04:04PM -18.3811 167.7153 220° Southwest  Level Estimated
04:05PM -18.4491 167.6546 220° Southwest  Level Estimated
04:06PM -18.5172 167.5939 220° Southwest  Level Estimated
04:07PM -18.5852 167.5331 220° Southwest  Level Estimated
04:08PM -18.6532 167.4722 220° Southwest  Level Estimated
04:09PM -18.7212 167.4113 220° Southwest  Level Estimated
04:10PM -18.7892 167.3504 220° Southwest  Level Estimated
04:11PM -18.8571 167.2894 220° Southwest  Level Estimated
04:12PM -18.9251 167.2283 220° Southwest  Level Estimated
04:13PM -18.9930 167.1672 220° Southwest  Level Estimated
04:14PM -19.0609 167.1060 220° Southwest  Level Estimated
04:15PM -19.1287 167.0449 220° Southwest  Level Estimated
04:16PM -19.1966 166.9836 220° Southwest  Level Estimated
04:17PM -19.2644 166.9223 220° Southwest  Level Estimated
04:18PM -19.3322 166.8610 220° Southwest  Level Estimated
04:19PM -19.4000 166.7996 221° Southwest  Level Estimated
04:20PM -19.4678 166.7381 221° Southwest  Level Estimated
04:21PM -19.5355 166.6766 221° Southwest  Level Estimated
04:22PM -19.6033 166.6151 221° Southwest  Level Estimated
04:23PM -19.6710 166.5534 221° Southwest  Level Estimated
04:24PM -19.7386 166.4918 221° Southwest  Level Estimated
04:25PM -19.8063 166.4301 221° Southwest  Level Estimated
04:26PM -19.8739 166.3683 221° Southwest  Level Estimated
04:27PM -19.9416 166.3065 221° Southwest  Level Estimated
04:28PM -20.0092 166.2446 221° Southwest  Level Estimated
04:29PM -20.0767 166.1827 221° Southwest  Level Estimated
04:30PM -20.1443 166.1207 221° Southwest  Level Estimated
04:31PM -20.2118 166.0587 221° Southwest  Level Estimated
04:32PM -20.2794 165.9966 221° Southwest  Level Estimated
04:33PM -20.3468 165.9345 221° Southwest  Level Estimated
04:34PM -20.4143 165.8723 221° Southwest  Level Estimated
04:35PM -20.4818 165.8100 221° Southwest  Level Estimated
04:36PM -20.5492 165.7477 221° Southwest  Level Estimated
04:37PM -20.6166 165.6854 221° Southwest  Level Estimated
04:38PM -20.6840 165.6230 221° Southwest  Level Estimated
04:39PM -20.7513 165.5605 221° Southwest  Level Estimated
04:40PM -20.8187 165.4980 221° Southwest  Level Estimated
04:41PM -20.8860 165.4354 221° Southwest  Level Estimated
04:42PM -20.9533 165.3728 221° Southwest  Level Estimated
04:43PM -21.0205 165.3101 221° Southwest  Level Estimated
04:44PM -21.0878 165.2473 221° Southwest  Level Estimated
04:44PM -21.2793 163.1741 235° Southwest 38,000  Level Aus ATC (Calculated)
04:45PM -21.3916 163.0052 235° Southwest 38,000  Level Aus ATC (Calculated)
04:47PM -21.4748 162.8796 235° Southwest  Level FlightAware Approximate
04:48PM -21.5252 162.8035 235° Southwest  Level FlightAware Approximate
04:48PM -21.6051 162.6825 235° Southwest 38,000  Level Aus ATC (Calculated)
04:49PM -21.6373 162.6337 235° Southwest 38,000  Level Aus ATC (Calculated)
04:50PM -21.6876 162.5573 235° Southwest  Level FlightAware Approximate
04:50PM -21.7323 162.4894 235° Southwest 38,000  Level Aus ATC (Calculated)
04:52PM -21.8198 162.3562 235° Southwest  Level FlightAware Approximate
04:53PM -21.8702 162.2793 235° Southwest  Level FlightAware Approximate
04:54PM -21.9206 162.2023 235° Southwest  Level FlightAware Approximate
04:55PM -21.9710 162.1253 235° Southwest  Level FlightAware Approximate
04:56PM -22.0213 162.0483 235° Southwest  Level FlightAware Approximate
04:57PM -22.0715 161.9711 235° Southwest  Level FlightAware Approximate
04:58PM -22.1218 161.8940 235° Southwest  Level FlightAware Approximate
04:59PM -22.1720 161.8167 235° Southwest  Level FlightAware Approximate
05:00PM -22.2221 161.7394 235° Southwest  Level FlightAware Approximate
05:01PM -22.2723 161.6621 235° Southwest  Level FlightAware Approximate
05:02PM -22.3224 161.5847 235° Southwest  Level FlightAware Approximate
05:03PM -22.3724 161.5072 235° Southwest  Level FlightAware Approximate
05:04PM -22.4224 161.4297 235° Southwest  Level FlightAware Approximate
05:05PM -22.4724 161.3522 235° Southwest  Level FlightAware Approximate
05:06PM -22.5224 161.2745 235° Southwest  Level FlightAware Approximate
05:07PM -22.5723 161.1968 235° Southwest  Level FlightAware Approximate
05:08PM -22.6221 161.1191 235° Southwest  Level FlightAware Approximate
05:09PM -22.6720 161.0413 235° Southwest  Level FlightAware Approximate
05:10PM -22.7218 160.9635 235° Southwest  Level FlightAware Approximate
05:11PM -22.7715 160.8856 235° Southwest  Level FlightAware Approximate
05:12PM -22.8212 160.8076 235° Southwest  Level FlightAware Approximate
05:13PM -22.8709 160.7296 235° Southwest  Level FlightAware Approximate
05:14PM -22.9205 160.6515 235° Southwest  Level FlightAware Approximate
05:15PM -22.9702 160.5734 235° Southwest  Level FlightAware Approximate
05:16PM -23.0197 160.4952 235° Southwest  Level FlightAware Approximate
05:17PM -23.0693 160.4169 235° Southwest  Level FlightAware Approximate
05:18PM -23.1187 160.3386 235° Southwest  Level FlightAware Approximate
05:19PM -23.1682 160.2603 236° Southwest  Level FlightAware Approximate
05:20PM -23.2176 160.1818 236° Southwest  Level FlightAware Approximate
05:21PM -23.2670 160.1033 236° Southwest  Level FlightAware Approximate
05:22PM -23.3163 160.0248 236° Southwest  Level FlightAware Approximate
05:22PM -23.9331 159.0355 236° Southwest 38,000  Level Aus ATC (Calculated)
05:23PM -23.9823 158.9559 236° Southwest  Level FlightAware Approximate
05:23PM -24.0648 158.8224 237° Southwest 38,000  Level Aus ATC (Calculated)
05:24PM -24.0315 158.8763 236° Southwest  Level FlightAware Approximate
05:25PM -24.1272 158.7211 236° Southwest  Level FlightAware Approximate
05:26PM -24.1758 158.6420 236° Southwest  Level FlightAware Approximate
05:27PM -24.2243 158.5629 236° Southwest  Level FlightAware Approximate
05:28PM -24.2729 158.4838 236° Southwest  Level FlightAware Approximate
05:29PM -24.3213 158.4046 236° Southwest  Level FlightAware Approximate
05:30PM -24.3697 158.3253 236° Southwest  Level FlightAware Approximate
05:31PM -24.4181 158.2460 236° Southwest  Level FlightAware Approximate
05:31PM -24.5885 157.9657 238° Southwest 38,000  Level Aus ATC (Calculated)
05:33PM -24.6832 157.8091 236° Southwest  Level FlightAware Approximate
05:34PM -24.7313 157.7294 236° Southwest  Level FlightAware Approximate
05:35PM -24.7794 157.6496 236° Southwest  Level FlightAware Approximate
05:36PM -24.8275 157.5697 236° Southwest  Level FlightAware Approximate
05:37PM -24.8755 157.4898 236° Southwest  Level FlightAware Approximate
05:37PM -25.0103 157.2645 308° West 38,000  Level Aus ATC (Calculated)
05:38PM -24.9234 157.4098 237° Southwest  Level FlightAware Approximate
05:39PM -25.1036 157.1081 237° Southwest  Level FlightAware Approximate
05:40PM -25.1513 157.0278 237° Southwest  Level FlightAware Approximate
05:41PM -25.1990 156.9475 237° Southwest  Level FlightAware Approximate
05:42PM -25.2467 156.8671 237° Southwest  Level FlightAware Approximate
05:43PM -25.2943 156.7866 237° Southwest  Level FlightAware Approximate
05:43PM -25.4289 156.5584 56° Northeast 38,000  Level Aus ATC (Calculated)
05:43PM -25.4930 156.4494 56° Northeast 38,000  Level Aus ATC (Calculated)
05:44PM -24.9993 157.2489 237° Southwest 548 631 38,000  Level Aus ATC (RADAR)
05:45PM -25.5530 156.3470 237° Southwest  Level FlightAware Approximate
05:45PM -25.0448 157.1978 225° Southwest 400 460 38,000  Level Aus ATC (RADAR)
05:46PM -25.0903 157.1182 238° Southwest 410 472 38,000  Level Aus ATC (RADAR)
05:46PM -25.1151 157.0736 239° Southwest 404 465 38,000  Level Aus ATC (RADAR)
05:48PM -25.2067 156.9267 235° Southwest 405 466 38,000  Level Aus ATC (RADAR)
05:48PM -25.2333 156.8830 236° Southwest 405 466 38,000  Level Aus ATC (RADAR)
05:48PM -25.2610 156.8396 235° Southwest 406 467 38,000  Level Aus ATC (RADAR)
05:49PM -25.2987 156.7795 235° Southwest 404 465 38,000  Level Aus ATC (RADAR)
05:50PM -25.3447 156.6988 238° Southwest 406 467 38,000  Level Aus ATC (RADAR)
05:50PM -25.3819 156.6377 236° Southwest 406 467 38,000  Level Aus ATC (RADAR)
05:51PM -25.4296 156.5585 236° Southwest 407 468 38,000  Level Aus ATC (RADAR)
05:51PM -25.4550 156.5135 238° Southwest 407 468 38,000 60 Level Aus ATC (RADAR)
05:53PM -25.5541 156.3445 237° Southwest 407 468 38,200  Climbing Aus ATC (RADAR)
05:53PM -25.5756 156.3084 237° Southwest 416 479 38,000  Descending FlightAware ADS-B (EKCH / CPH)
05:53PM -25.5791 156.2991 239° Southwest 408 470 38,200 300 Climbing Aus ATC (RADAR)
05:54PM -25.6092 156.2445 239° Southwest 409 471 38,200 -180 Level Aus ATC (RADAR)
05:55PM -25.6605 156.1631 237° Southwest 414 476 38,000  Descending FlightAware ADS-B (EKCH / CPH)
05:55PM -25.6977 156.0948 237° Southwest 406 467 38,200  Climbing Aus ATC (RADAR)
05:55PM -25.7031 156.0899 237° Southwest 414 476 38,000 -300 Descending FlightAware ADS-B (EKCH / CPH)
05:56PM -25.7493 156.0250 229° Southwest 418 481 38,000  Level FlightAware ADS-B (EKCH / CPH)
05:57PM -25.7827 155.9821 229° Southwest 418 481 38,000  Level FlightAware ADS-B (EKCH / CPH)
05:57PM -25.8380 155.9114 229° Southwest 420 483 38,000  Level FlightAware ADS-B (EKCH / CPH)
05:58PM -25.8769 155.8615 229° Southwest 423 487 38,000  Level FlightAware ADS-B (EKCH / CPH)
05:58PM -25.9156 155.8118 229° Southwest 426 490 38,000  Level FlightAware ADS-B (EKCH / CPH)
05:59PM -25.9548 155.7614 229° Southwest 426 490 38,000  Level FlightAware ADS-B (EKCH / CPH)
05:59PM -25.9938 155.7110 229° Southwest 426 490 38,000  Level FlightAware ADS-B (EKCH / CPH)
06:00PM -26.0414 155.6496 230° Southwest 426 490 38,000  Level FlightAware ADS-B (EKCH / CPH)
06:00PM -26.0804 155.5993 229° Southwest 426 490 38,000  Level FlightAware ADS-B (EKCH / CPH)
06:01PM -26.1324 155.5322 229° Southwest 427 491 38,000  Level FlightAware ADS-B (EKCH / CPH)
06:02PM -26.1733 155.4792 230° Southwest 427 491 38,000  Level FlightAware ADS-B (EKCH / CPH)
06:02PM -26.2248 155.4124 229° Southwest 429 494 38,000  Level FlightAware ADS-B (EKCH / CPH)
06:03PM -26.2760 155.3461 229° Southwest 429 494 38,000  Level FlightAware ADS-B (EKCH / CPH)
06:03PM -26.3138 155.2970 230° Southwest 427 491 38,000  Level FlightAware ADS-B (EKCH / CPH)
06:04PM -26.3536 155.2453 230° Southwest 424 488 38,000  Level FlightAware ADS-B (EKCH / CPH)
06:04PM -26.3911 155.1963 230° Southwest 422 486 38,000  Level FlightAware ADS-B (EKCH / CPH)
06:05PM -26.4295 155.1463 229° Southwest 423 487 38,000  Level FlightAware ADS-B (EKCH / CPH)
06:05PM -26.4682 155.0958 230° Southwest 422 486 38,000  Level FlightAware ADS-B (EKCH / CPH)
06:06PM -26.5053 155.0473 230° Southwest 421 484 38,000  Level FlightAware ADS-B (EKCH / CPH)
06:06PM -26.5386 155.0036 230° Southwest 421 484 38,000  Level FlightAware ADS-B (EKCH / CPH)
06:07PM -26.5816 154.9473 230° Southwest 420 483 38,000  Level FlightAware ADS-B (EKCH / CPH)
06:07PM -26.6183 154.8991 230° Southwest 420 483 38,000  Level FlightAware ADS-B (EKCH / CPH)
06:08PM -26.6560 154.8497 230° Southwest 419 482 38,000  Level FlightAware ADS-B (EKCH / CPH)
06:08PM -26.6931 154.8010 230° Southwest 419 482 38,000  Level FlightAware ADS-B (EKCH / CPH)
06:09PM -26.7306 154.7516 230° Southwest 420 483 38,000  Level FlightAware ADS-B (EKCH / CPH)
06:09PM -26.7703 154.6993 230° Southwest 419 482 38,000  Level FlightAware ADS-B (EKCH / CPH)
06:10PM -26.8068 154.6512 230° Southwest 422 486 38,000  Level FlightAware ADS-B (EKCH / CPH)
06:11PM -26.8415 154.6054 230° Southwest 427 491 38,000  Level FlightAware ADS-B
06:11PM -26.8957 154.5340 230° Southwest 428 493 38,000  Level FlightAware ADS-B (YTWB)
06:12PM -26.9349 154.4821 230° Southwest 429 494 38,000  Level FlightAware ADS-B (YTWB)
06:12PM -26.9735 154.4309 230° Southwest 429 494 38,000  Level FlightAware ADS-B (EKCH / CPH)
06:13PM -27.0108 154.3812 230° Southwest 429 494 38,000  Level FlightAware ADS-B (EKCH / CPH)
06:13PM -27.0506 154.3283 230° Southwest 429 494 38,000  Level FlightAware ADS-B (EKCH / CPH)
06:14PM -27.0880 154.2787 230° Southwest 429 494 38,000  Level FlightAware ADS-B (EKCH / CPH)
06:14PM -27.1270 154.2268 230° Southwest 429 494 38,000  Level FlightAware ADS-B (EKCH / CPH)
06:15PM -27.1656 154.1753 230° Southwest 429 494 38,000  Level FlightAware ADS-B (EKCH / CPH)
06:15PM -27.2036 154.1247 230° Southwest 429 494 38,000  Level FlightAware ADS-B (EKCH / CPH)
06:16PM -27.2417 154.0738 230° Southwest 428 493 38,000  Level FlightAware ADS-B (EKCH / CPH)
06:16PM -27.2828 154.0188 230° Southwest 427 491 38,000  Level FlightAware ADS-B
06:17PM -27.3305 153.9546 230° Southwest 428 493 38,000  Level FlightAware ADS-B (EKCH / CPH)
06:17PM -27.3809 153.8871 230° Southwest 429 494 38,000  Level FlightAware ADS-B (YTWB)
06:18PM -27.4187 153.8364 230° Southwest 429 494 38,000  Level FlightAware ADS-B (EKCH / CPH)
06:18PM -27.4587 153.7825 230° Southwest 429 494 38,000  Level FlightAware ADS-B (EKCH / CPH)
06:19PM -27.4947 153.7340 230° Southwest 429 494 38,000  Level FlightAware ADS-B (EKCH / CPH)
06:20PM -27.5415 153.6710 230° Southwest 430 495 38,000  Level FlightAware ADS-B
06:20PM -27.5839 153.6138 230° Southwest 429 494 38,000  Level FlightAware ADS-B (EKCH / CPH)
06:21PM -27.6346 153.5452 230° Southwest 429 494 38,000  Level FlightAware ADS-B (YTWB)
06:21PM -27.6659 153.5029 230° Southwest 430 495 38,000  Level FlightAware ADS-B
06:22PM -27.7125 153.4395 230° Southwest 430 495 38,000  Level FlightAware ADS-B (EKCH / CPH)
06:22PM -27.7481 153.3913 230° Southwest 428 493 38,000  Level FlightAware ADS-B (EKCH / CPH)
06:23PM -27.7883 153.3367 230° Southwest 428 493 38,000  Level FlightAware ADS-B (EKCH / CPH)
06:23PM -27.8213 153.2918 231° Southwest 428 493 38,000  Level FlightAware ADS-B (EKCH / CPH)
06:24PM -27.8642 153.2332 231° Southwest 428 493 38,000  Level FlightAware ADS-B (EKCH / CPH)
06:24PM -27.9024 153.1812 230° Southwest 428 493 38,000  Level FlightAware ADS-B (EKCH / CPH)
06:25PM -27.9247 153.1514 228° Southwest 433 498 38,000  Level FlightAware ADS-B (YTWB)
06:25PM -27.9375 153.1370 219° Southwest 444 511 38,000  Level FlightAware ADS-B
06:25PM -27.9754 153.1058 211° Southwest 453 521 38,000  Level FlightAware ADS-B (EKCH / CPH)
06:25PM -27.9938 153.0951 205° Southwest 461 531 38,000  Level FlightAware ADS-B (EKCH / CPH)
06:26PM -28.0553 153.0657 203° Southwest 465 535 38,000  Level FlightAware ADS-B (EKCH / CPH)
06:26PM -28.1148 153.0373 203° Southwest 466 536 38,000  Level FlightAware ADS-B (EKCH / CPH)
06:27PM -28.1706 153.0106 203° Southwest 466 536 38,000  Level FlightAware ADS-B (EKCH / CPH)
06:27PM -28.2332 152.9806 203° Southwest 466 536 38,000  Level FlightAware ADS-B (EKCH / CPH)
06:28PM -28.2932 152.9517 203° Southwest 467 537 38,000  Level FlightAware ADS-B (EKCH / CPH)
06:28PM -28.3307 152.9336 203° Southwest 468 539 38,000  Level FlightAware ADS-B (EKCH / CPH)
06:28PM -28.3524 152.9231 203° Southwest 468 539 38,000  Level FlightAware ADS-B (EKCH / CPH)
06:28PM -28.3727 152.9133 203° Southwest 468 539 38,000  Level FlightAware ADS-B (EKCH / CPH)
06:29PM -28.3798 152.9099 204° Southwest 460 529 38,000  Level FlightAware ADS-B (YTWB)
06:30PM -28.5104 152.8466 203° Southwest 469 540 38,000  Level FlightAware ADS-B (YTWB)
06:30PM -28.5701 152.8177 203° Southwest 471 542 38,000  Level FlightAware ADS-B (YTWB)
06:31PM -28.6308 152.7884 203° Southwest 472 543 38,000  Level FlightAware ADS-B (YTWB)
06:31PM -28.6937 152.7580 203° Southwest 473 544 38,000  Level FlightAware ADS-B (EKCH / CPH)
06:32PM -28.7534 152.7290 203° Southwest 474 545 38,000  Level FlightAware ADS-B (EKCH / CPH)
06:32PM -28.8141 152.6994 203° Southwest 476 548 38,000  Level FlightAware ADS-B (EKCH / CPH)
06:33PM -28.8740 152.6702 203° Southwest 479 551 38,000  Level FlightAware ADS-B (EKCH / CPH)
06:33PM -28.9154 152.6502 203° Southwest 479 551 38,000  Level FlightAware ADS-B (EKCH / CPH)
06:33PM -28.9333 152.6414 203° Southwest 479 551 38,000  Level FlightAware ADS-B (EKCH / CPH)
06:33PM -28.9548 152.6309 204° Southwest 473 544 38,000  Level FlightAware ADS-B (YTWB)
06:34PM -29.0173 152.6003 204° Southwest 474 545 38,000  Level FlightAware ADS-B (YTWB)
06:34PM -29.0274 152.5954 204° Southwest 475 547 38,000  Level FlightAware ADS-B (YTWB)
06:34PM -29.0980 152.5609 203° Southwest 483 556 38,000  Level FlightAware ADS-B (EKCH / CPH)
06:35PM -29.1616 152.5298 203° Southwest 484 557 38,000 180 Level FlightAware ADS-B (EKCH / CPH)
06:35PM -29.2298 152.4959 203° Southwest 483 556 38,200  Climbing Aus ATC (RADAR)
06:36PM -29.2653 152.4792 203° Southwest 484 557 38,000 -240 Descending FlightAware ADS-B (EKCH / CPH)
06:36PM -29.3473 152.4386 203° Southwest 484 557 38,000  Level FlightAware ADS-B (EKCH / CPH)
06:37PM -29.4092 152.4081 204° Southwest 484 557 38,000  Level FlightAware ADS-B (EKCH / CPH)
06:37PM -29.4705 152.3778 203° Southwest 484 557 38,000  Level FlightAware ADS-B (EKCH / CPH)
06:38PM -29.5326 152.3470 203° Southwest 484 557 38,000  Level FlightAware ADS-B (EKCH / CPH)
06:38PM -29.5940 152.3167 203° Southwest 486 559 38,000  Level FlightAware ADS-B (EKCH / CPH)
06:39PM -29.6564 152.2858 204° Southwest 486 559 38,000  Level FlightAware ADS-B (EKCH / CPH)
06:40PM -29.7391 152.2448 203° Southwest 488 562 38,000  Level FlightAware ADS-B (EKCH / CPH)
06:40PM -29.8196 152.2050 203° Southwest 490 564 38,000 240 Level FlightAware ADS-B (EKCH / CPH)
06:41PM -29.8891 152.1703 203° Southwest 490 564 38,300  Climbing Aus ATC (RADAR)
06:41PM -29.8916 152.1693 203° Southwest 490 564 38,000 -480 Descending FlightAware ADS-B (EKCH / CPH)
06:41PM -29.9683 152.1310 203° Southwest 488 562 38,000  Level FlightAware ADS-B (EKCH / CPH)
06:42PM -30.0467 152.0919 204° Southwest 489 563 38,000  Level FlightAware ADS-B (EKCH / CPH)
06:43PM -30.1088 152.0608 204° Southwest 488 562 38,000  Level FlightAware ADS-B (EKCH / CPH)
06:43PM -30.1684 152.0309 204° Southwest 487 560 38,000 240 Level FlightAware ADS-B (EKCH / CPH)
06:44PM -30.2403 151.9928 204° Southwest 487 560 38,300  Climbing Aus ATC (RADAR)
06:44PM -30.2754 151.9772 204° Southwest 489 563 38,000  Descending FlightAware ADS-B (EKCH / CPH)
06:45PM -30.4169 151.9042 204° Southwest 490 564 38,300 120 Climbing Aus ATC (RADAR)
06:46PM -30.4897 151.8680 203° Southwest 489 563 38,300  Level Aus ATC (RADAR)
06:46PM -30.5832 151.8212 203° Southwest 490 564 38,300 -120 Level Aus ATC (RADAR)
06:47PM -30.6247 151.8002 203° Southwest 490 564 38,200  Descending Aus ATC (RADAR)
06:47PM -30.6969 151.7633 204° Southwest 489 563 38,300 -180 Climbing Aus ATC (RADAR)
06:48PM -30.8476 151.6881 203° Southwest 491 565 38,000 -360 Descending FlightAware ADS-B (YPLB)
06:48PM -30.8668 151.6783 203° Southwest 492 566 38,000  Level FlightAware ADS-B (YPLB)
06:48PM -30.8898 151.6667 203° Southwest 492 566 38,000 1,260 Level FlightAware ADS-B (YPLB)
06:48PM -30.8420 151.6901 203° Southwest 489 563 38,300  Climbing Aus ATC (RADAR)
06:49PM -30.9102 151.6563 203° Southwest 491 565 38,000 -480 Descending FlightAware ADS-B (YPLB)
06:49PM -30.9756 151.6230 203° Southwest 491 565 38,000 300 Level FlightAware ADS-B (YPLB)
06:49PM -30.9670 151.6265 203° Southwest 491 565 38,300  Climbing Aus ATC (RADAR)
06:50PM -31.0357 151.5923 203° Southwest 491 565 38,000  Descending FlightAware ADS-B (YPLB)
06:50PM -31.0606 151.5784 203° Southwest 492 566 38,300  Climbing Aus ATC (RADAR)
06:50PM -31.1222 151.5480 203° Southwest 493 567 38,000  Descending FlightAware ADS-B (YPLB)
06:51PM -31.1335 151.5413 203° Southwest 491 565 38,300  Climbing Aus ATC (RADAR)
06:51PM -31.1948 151.5109 203° Southwest 493 567 38,000 -480 Descending FlightAware ADS-B (YPLB)
06:51PM -31.2720 151.4712 203° Southwest 487 560 38,000 360 Level FlightAware ADS-B (YPLB)
06:52PM -31.2277 151.4932 203° Southwest 493 567 38,300 660 Climbing Aus ATC (RADAR)
06:52PM -31.2698 151.4726 203° Southwest 493 567 38,300 -660 Level Aus ATC (RADAR)
06:52PM -31.3407 151.4359 203° Southwest 489 563 38,000 -420 Descending FlightAware ADS-B (YPLB)
06:53PM -31.4255 151.3950 201° Southwest 494 568 38,000  Level FlightAware ADS-B (YPLB)
06:53PM -31.5090 151.3575 201° Southwest 496 571 38,000 300 Level FlightAware ADS-B (YPLB)
06:54PM -31.4816 151.3697 201° Southwest 491 565 38,300  Climbing Aus ATC (RADAR)
06:54PM -31.5937 151.3197 200° South 497 572 38,000  Descending FlightAware ADS-B (YPLB)
06:54PM -31.5436 151.3422 201° Southwest 496 571 38,300  Climbing Aus ATC (RADAR)
06:54PM -31.6569 151.2913 200° South 497 572 38,000  Descending FlightAware ADS-B (YPLB)
06:55PM -31.6188 151.3090 200° South 497 572 38,300  Climbing Aus ATC (RADAR)
06:55PM -31.7244 151.2610 200° South 498 573 38,000  Descending FlightAware ADS-B (YPLB)
06:55PM -31.7155 151.2653 200° South 498 573 38,300  Climbing Aus ATC (RADAR)
06:56PM -31.7909 151.2312 201° Southwest 499 574 38,000 -480 Descending FlightAware ADS-B (YPLB)
06:56PM -31.8567 151.2016 201° Southwest 499 574 38,000  Level FlightAware ADS-B (YPLB)
06:57PM -31.9218 151.1723 201° Southwest 499 574 38,000 420 Level FlightAware ADS-B (YPLB)
06:57PM -31.8878 151.1877 201° Southwest 498 573 38,300  Climbing Aus ATC (RADAR)
06:57PM -31.9840 151.1443 200° South 499 574 38,000  Descending FlightAware ADS-B (YPLB)
06:57PM -31.9416 151.1634 201° Southwest 497 572 38,300 420 Climbing Aus ATC (RADAR)
06:58PM -32.0171 151.1297 200° South 498 573 38,300 -1,080 Level Aus ATC (RADAR)
06:58PM -32.0756 151.1033 200° South 499 574 37,700 -3,600 Descending FlightAware ADS-B (YPLB)
06:58PM -32.1381 151.0750 201° Southwest 495 570 36,500 -1,200 Descending FlightAware ADS-B (YPLB)
06:59PM -32.1591 151.0650 201° Southwest 495 570 36,400 -3,000 Descending Aus ATC (RADAR)
06:59PM -32.2248 151.0357 200° South 499 574 34,500 -3,120 Descending FlightAware ADS-B (YPLB)
06:59PM -32.2126 151.0406 201° Southwest 496 571 35,100 -3,000 Climbing Aus ATC (RADAR)
06:59PM -32.2882 151.0075 200° South 501 577 33,000 -5,400 Descending FlightAware ADS-B (YPLB)
07:00PM -32.3544 150.9781 200° South 496 571 31,700 -2,400 Descending FlightAware ADS-B (YPLB)
07:00PM -32.4162 150.9502 201° Southwest 490 564 30,600 -660 Descending FlightAware ADS-B (YPLB)
07:01PM -32.3962 150.9590 200° South 495 570 31,200 -2,520 Climbing Aus ATC (RADAR)
07:01PM -32.4974 150.9218 188° South 485 558 29,100 -2,400 Descending FlightAware ADS-B (YPLB)
07:01PM -32.4785 150.9241 201° Southwest 484 557 29,700 -2,100 Climbing Aus ATC (RADAR)
07:01PM -32.5418 150.9208 176° South 478 550 28,400 -4,740 Descending FlightAware ADS-B (YPLB)
07:02PM -32.6085 150.9316 171° South 473 544 27,200 -720 Descending FlightAware ADS-B (YPLB)
07:02PM -32.5785 150.9263 176° South 471 542 27,900  Climbing Aus ATC (RADAR)
07:02PM -32.6326 150.9358 171° South 463 533 27,200 -3,780 Descending Aus ATC (RADAR)
07:03PM -32.6923 150.9465 171° South 454 522 26,100 -3,540 Descending FlightAware ADS-B (YPLB)
07:03PM -32.7749 150.9612 171° South 443 510 24,700 -720 Descending FlightAware ADS-B (YPLB)
07:03PM -32.7493 150.9568 171° South 451 519 25,500 -2,700 Climbing Aus ATC (RADAR)
07:04PM -32.8510 150.9743 171° South 431 496 23,000 -2,940 Descending FlightAware ADS-B (YPLB)
07:04PM -32.8077 150.9667 171° South 433 498 24,200 -2,340 Climbing Aus ATC (RADAR)
07:04PM -32.9132 150.9856 171° South 421 484 21,800 -2,400 Descending FlightAware ADS-B (YPLB)
07:05PM -32.9253 150.9876 171° South 413 475 21,800 -780 Level Aus ATC (RADAR)
07:05PM -32.9368 150.9899 171° South 410 472 21,300 -2,340 Descending FlightAware ADS-B
07:06PM -33.0032 151.0019 171° South 412 474 20,200 -2,220 Descending Aus ATC (RADAR)
07:06PM -33.0304 151.0071 171° South 408 470 19,500 -4,080 Descending FlightAware ADS-B
07:06PM -33.1261 151.0241 171° South 404 465 17,500 -2,340 Descending FlightAware ADS-B (YPLB)
07:07PM -33.1537 151.0289 171° South 393 452 17,000 -1,080 Descending FlightAware ADS-B (YRAY)
07:07PM -33.2065 151.0382 171° South 399 459 16,300 -2,040 Descending Aus ATC (RADAR)
07:08PM -33.2496 151.0461 171° South 388 447 15,200 -2,220 Descending FlightAware ADS-B (YRAY)
07:08PM -33.3264 151.0610 170° South 373 429 13,900 -2,100 Descending FlightAware ADS-B (YRAY)
07:09PM -33.3911 151.0735 170° South 373 429 12,400 -2,280 Descending FlightAware ADS-B (YRAY)
07:10PM -33.4455 151.0839 171° South 357 411 11,300 -1,980 Descending FlightAware ADS-B (YRAY)
07:10PM -33.5004 151.0944 171° South 359 413 10,100 -1,380 Descending FlightAware ADS-B (YRAY)
07:11PM -33.5344 151.1007 171° South 339 390 10,000 -720 Descending FlightAware ADS-B (YRAY)
07:11PM -33.5626 151.1062 171° South 325 374 9,700 -1,380 Descending FlightAware ADS-B (YRAY)
07:11PM -33.5941 151.1123 171° South 315 362 9,100 -1,500 Descending FlightAware ADS-B (YRAY)
07:12PM -33.6197 151.1173 171° South 308 354 8,700 -1,080 Descending FlightAware ADS-B (YRAY)
07:12PM -33.6474 151.1229 170° South 292 336 8,500 -540 Descending FlightAware ADS-B (YRAY)
07:12PM -33.6678 151.1271 170° South 294 338 8,400 -600 Descending FlightAware ADS-B (YRAY)
07:12PM -33.6882 151.1318 166° South 302 348 8,200 -600 Descending FlightAware ADS-B (YRAY)
07:13PM -33.7061 151.1417 148° Southeast 298 343 8,100 -660 Descending FlightAware ADS-B (YRAY)
07:13PM -33.7209 151.1572 134° Southeast 298 343 7,900 -780 Descending FlightAware ADS-B (YRAY)
07:13PM -33.7411 151.1821 134° Southeast 300 345 7,700 -600 Descending FlightAware ADS-B (YRAY)
07:14PM -33.7615 151.2078 134° Southeast 302 348 7,500 -660 Descending FlightAware ADS-B (YRAY)
07:14PM -33.7787 151.2294 134° Southeast 299 344 7,300 -660 Descending FlightAware ADS-B (YRAY)
07:14PM -33.7991 151.2546 134° Southeast 301 346 7,100 -720 Descending FlightAware ADS-B (YRAY)
07:15PM -33.8197 151.2790 139° Southeast 301 346 6,800 -780 Descending FlightAware ADS-B (YRAY)
07:15PM -33.8319 151.2884 150° Southeast 300 345 6,700 -360 Descending FlightAware ADS-B (YRAY)
07:15PM -33.8417 151.2932 161° South 306 352 6,700 -660 Level FlightAware ADS-B (YRAY)
07:15PM -33.8721 151.3013 168° South 298 343 6,400 -720 Descending FlightAware ADS-B (YRAY)
07:16PM -33.8993 151.3081 168° South 296 341 6,200 -600 Descending FlightAware ADS-B (YRAY)
07:16PM -33.9286 151.3156 168° South 300 345 6,000 -600 Descending FlightAware ADS-B (YRAY)
07:16PM -33.9552 151.3225 168° South 283 326 5,800 -360 Descending FlightAware ADS-B (YRAY)
07:17PM -33.9791 151.3286 168° South 280 322 5,800  Level FlightAware ADS-B (YRAY)
07:17PM -34.0057 151.3355 168° South 277 319 5,800  Level FlightAware ADS-B (YRAY)
07:17PM -34.0243 151.3403 168° South 278 320 5,800 -300 Level FlightAware ADS-B (YRAY)
07:18PM -34.0474 151.3463 168° South 275 316 5,600 -960 Descending FlightAware ADS-B (YRAY)
07:18PM -34.0723 151.3528 167° South 258 297 5,100 -1,620 Descending FlightAware ADS-B (YPLB)
07:18PM -34.1311 151.3687 166° South 257 296 4,700 -1,080 Descending FlightAware ADS-B (YPLB)
07:19PM -34.1521 151.3707 187° South 263 303 4,400 -540 Descending FlightAware ADS-B (YPLB)
07:19PM -34.1557 151.3698 167° South 267 307 4,300 -1,080 Descending FlightAware ADS-B (YRAY)
07:19PM -34.1762 151.3514 223° Southwest 251 289 3,800 -540 Descending FlightAware ADS-B (YPLB)
07:20PM -34.1817 151.3384 167° South 243 280 4,000 -240 Climbing Aus ATC (RADAR)
07:20PM -34.1925 151.3092 223° Southwest 228 262 3,600 -600 Descending Aus ATC (RADAR)
07:21PM -34.1964 151.2716 263° West 196 226 3,400 -420 Descending Aus ATC (RADAR)
07:21PM -34.1655 151.2460 326° Northwest 166 191 3,100 -660 Descending Aus ATC (RADAR)
07:22PM -34.1499 151.2399 346° North 165 190 2,700 -720 Descending FlightAware ADS-B (YRAY)
07:22PM -34.1324 151.2355 349° North 163 188 2,600 -360 Descending FlightAware ADS-B (YRAY)
07:22PM -34.1211 151.2329 348° North 164 189 2,500 -180 Descending FlightAware ADS-B (YRAY)
07:23PM -34.1047 151.2286 348° North 163 188 2,500 -660 Level FlightAware ADS-B (YRAY)
07:23PM -34.0802 151.2222 348° North 168 193 1,900 -1,080 Descending FlightAware ADS-B (YRAY)
07:23PM -34.0691 151.2193 347° North 147 169 1,700 -900 Descending FlightAware ADS-B (YRAY)
07:24PM -34.0608 151.2172 347° North 147 169 1,500 -780 Descending FlightAware ADS-B (YRAY)
07:24PM -34.0466 151.2135 348° North 149 171 1,300 -780 Descending FlightAware ADS-B (YRAY)
07:24PM -34.0350 151.2105 347° North 132 152 1,000 -840 Descending FlightAware ADS-B (YRAY)
07:25PM -34.0146 151.2052 347° North 131 151 600 -720 Descending FlightAware ADS-B (YRAY)
07:25PM -34.0007 151.2016 347° North 132 152 400 -720 Descending FlightAware ADS-B (YRAY)
07:26PM -33.9877 151.1982 347° North 133 153 100 -900 Descending FlightAware ADS-B (YRAY)